KDHT/DHT METAR and TAF weather

Enter ICAO airport designator
Station Type Date Time Source
KDHT METAR 2019/10/16 19:53 UTC NOAA

KDHT 161953Z AUTO 22020G26KT 10SM -RA CLR 22/M03 A3016 RMK AO2 PK WND 21030/1859 RAB01 SLP184 P0000 T02221033


Station Type Date Time Source
KDHT Decoded METAR 2019/10/16 19:53 UTC NOAA

DALHART MUNICIPAL AIRPORT, TX, United States (KDHT) 36-01N 102-33W 1217M
Oct 16, 2019 - 03:53 PM EDT / 2019.10.16 1953 UTC
Wind: from the SW (220 degrees) at 23 MPH (20 KT) gusting to 30 MPH (26 KT):0
Visibility: 10 mile(s):0
Sky conditions: clear
Weather: light rain
Precipitation last hour: A trace
Temperature: 72.0 F (22.2 C)
Dew Point: 26.1 F (-3.3 C)
Relative Humidity: 17%
Pressure (altimeter): 30.16 in. Hg (1021 hPa)
ob: KDHT 161953Z AUTO 22020G26KT 10SM -RA CLR 22/M03 A3016 RMK AO2 PK WND 21030/1859 RAB01 SLP184 P0000 T02221033
cycle: 20

Station Type Date Time Source
KDHT TAF 2019/10/16 18:22 UTC NOAA

TAF KDHT 161720Z 1618/1718 23015G25KT P6SM SKC
FM170100 19011KT P6SM SKC
FM170800 22011KT P6SM SKC WS010/24045KT
FM171300 22015KT P6SM SKC

Example: see airport list